Bookmark and Share
Track history (hours):
 

BBC Switzerland

Last reported at 2014-Mar-18 05:31 UTC. Time now 2014-Apr-16 16:10 UTC.
Position N 36°35' E 014°43'.
Warning: this ship's position is 29 days out of date.

Length 119 m; draft 7.4 m.

Type: Cargo ship. MMSI: 218629000.

NotesDate/timePositionNaut miles runAvg speedWind from/ knotsBaromVisibWave heightAir tempDewpointWater temp
2014-Mar-18 05:31N 36°35' E 014°43'1414.2
2014-Mar-18 04:33N 36°39' E 014°27'1414.0
2014-Mar-18 03:33N 36°43' E 014°10'1414.1
2014-Mar-18 02:33N 36°48' E 013°53'1413.9
2014-Mar-18 01:33N 36°54' E 013°37'  
2014-Mar-15 06:25N 36°06' W 005°05'1213.9
2014-Mar-15 05:33N 36°04' W 005°19'6 1.2
2014-Mar-15 00:33N 36°09' W 005°22'0 0.1
2014-Mar-14 23:31N 36°09' W 005°22'5 5.7
2014-Mar-14 22:33N 36°05' W 005°18'9 7.7
2014-Mar-14 21:25N 36°05' W 005°07'1 0.9
2014-Mar-14 20:25N 36°05' W 005°06'1 0.8
2014-Mar-14 19:17N 36°06' W 005°05'231 7.5
2014-Mar-13 12:30N 37°03' W 009°43'3913.2
2014-Mar-13 09:32N 37°42' W 009°54'  
2014-Mar-10 12:24N 50°17' W 001°25'1113.6
2014-Mar-10 11:33N 50°20' W 001°07'4514.3
2014-Mar-10 08:27N 50°31' E 000°01'1314.9
2014-Mar-10 07:33N 50°34' E 000°21'1514.1
2014-Mar-10 06:31N 50°39' E 000°42'1313.6
2014-Mar-10 05:34N 50°47' E 000°59'1413.3
2014-Mar-10 04:31N 50°55' E 001°17'1314.0
2014-Mar-10 03:34N 51°04' E 001°32'1514.9
2014-Mar-10 02:34N 51°15' E 001°48'1614.6
2014-Mar-10 01:26N 51°29' E 002°01'47812.0
2014-Mar-08 09:34N 57°48' E 010°25'1110.5
2014-Mar-08 08:33N 57°48' E 010°44'1212.1
2014-Mar-08 07:33N 57°41' E 011°02'1413.7
2014-Mar-08 06:34N 57°31' E 011°20'1212.1
2014-Mar-08 05:34N 57°20' E 011°31'  

Dump ship's entire track history

sailing weather and tide predictions

BBC Switzerland — DGFL2 — position and weather